Webcam & Weather

This webcam image will automatically refresh every 15 seconds.


METAR and TAF for EGLL Heathrow (12 Nautical Miles East of White Waltham)

Available data for EGLL from the past hour
LONDON/HEATHROW
TAF
TAF EGLL 201055Z 2012/2118 34012KT 9999 BKN025 PROB40 TEMPO 2012/2020 35015G25KT BECMG 2018/2021 04008KT TEMPO 2020/2106 6000 -RADZ BKN012

Play 24 hour timelapse | Play 30 day timelapse

Comments are closed.